GFA503 OMDB-OBBI
Flight info
| Callsign | GFA503 |
|---|---|
| Flight time | 0h 53m |
| Altitude | 26000 |
| Route | NABIX P699 ORMID M556 ORDIG |
| Aircraft | A320/M-SDE3FGHIRWY/LB1 |
Departure
| Time | 2026-05-04 14:51 |
|---|---|
| Airport | Dubai International Airport (OMDB) |
Arrival
| Time | 2026-05-04 15:44 |
|---|---|
| Airport | Bahrain International Airport (OBBI) |
| Time | Latitude | Longitude | Altitude | Speed | Heading |
|---|---|---|---|---|---|
| 2026-05-04 14:13 | 25.25924 | 55.34454 | 25 ft | 0 kts | 211° |
| 2026-05-04 14:36 | 25.25932 | 55.34459 | 22 ft | 4 kts | 211° |
| 2026-05-04 14:36 | 25.25955 | 55.34475 | 23 ft | 4 kts | 211° |
| 2026-05-04 14:36 | 25.25974 | 55.34488 | 24 ft | 4 kts | 206° |
| 2026-05-04 14:37 | 25.26000 | 55.34493 | 23 ft | 4 kts | 155° |
| 2026-05-04 14:37 | 25.26015 | 55.34478 | 25 ft | 3 kts | 121° |
| 2026-05-04 14:37 | 25.26024 | 55.34463 | 21 ft | 0 kts | 121° |
| 2026-05-04 14:40 | 25.25993 | 55.34520 | 22 ft | 4 kts | 122° |
| 2026-05-04 14:40 | 25.25979 | 55.34544 | 22 ft | 5 kts | 122° |
| 2026-05-04 14:40 | 25.25950 | 55.34594 | 22 ft | 8 kts | 122° |
| 2026-05-04 14:40 | 25.25923 | 55.34644 | 23 ft | 7 kts | 122° |
| 2026-05-04 14:41 | 25.25899 | 55.34686 | 21 ft | 6 kts | 122° |
| 2026-05-04 14:41 | 25.25873 | 55.34730 | 21 ft | 9 kts | 122° |
| 2026-05-04 14:41 | 25.25803 | 55.34856 | 21 ft | 11 kts | 122° |
| 2026-05-04 14:42 | 25.25716 | 55.35011 | 21 ft | 12 kts | 121° |
| 2026-05-04 14:42 | 25.25668 | 55.35106 | 21 ft | 14 kts | 107° |
| 2026-05-04 14:42 | 25.25716 | 55.35178 | 21 ft | 12 kts | 31° |
| 2026-05-04 14:43 | 25.25784 | 55.35224 | 21 ft | 13 kts | 31° |
| 2026-05-04 14:43 | 25.25881 | 55.35289 | 23 ft | 14 kts | 31° |
| 2026-05-04 14:43 | 25.25956 | 55.35340 | 23 ft | 12 kts | 35° |
| 2026-05-04 14:43 | 25.26000 | 55.35406 | 21 ft | 10 kts | 70° |
| 2026-05-04 14:44 | 25.26007 | 55.35487 | 22 ft | 11 kts | 94° |
| 2026-05-04 14:44 | 25.25977 | 55.35577 | 23 ft | 14 kts | 121° |
| 2026-05-04 14:44 | 25.25920 | 55.35679 | 22 ft | 18 kts | 122° |
| 2026-05-04 14:44 | 25.25851 | 55.35802 | 23 ft | 19 kts | 122° |
| 2026-05-04 14:45 | 25.25785 | 55.35918 | 22 ft | 17 kts | 121° |
| 2026-05-04 14:45 | 25.25729 | 55.36020 | 22 ft | 15 kts | 122° |
| 2026-05-04 14:45 | 25.25679 | 55.36108 | 22 ft | 13 kts | 122° |
| 2026-05-04 14:45 | 25.25631 | 55.36194 | 23 ft | 15 kts | 122° |
| 2026-05-04 14:46 | 25.25573 | 55.36296 | 22 ft | 17 kts | 122° |
| 2026-05-04 14:46 | 25.25506 | 55.36414 | 23 ft | 19 kts | 122° |
| 2026-05-04 14:46 | 25.25440 | 55.36531 | 22 ft | 17 kts | 122° |
| 2026-05-04 14:46 | 25.25382 | 55.36636 | 21 ft | 15 kts | 122° |
| 2026-05-04 14:47 | 25.25318 | 55.36748 | 22 ft | 18 kts | 122° |
| 2026-05-04 14:47 | 25.25256 | 55.36860 | 22 ft | 16 kts | 121° |
| 2026-05-04 14:47 | 25.25198 | 55.36964 | 22 ft | 18 kts | 122° |
| 2026-05-04 14:47 | 25.25120 | 55.37101 | 26 ft | 22 kts | 122° |
| 2026-05-04 14:48 | 25.25042 | 55.37240 | 23 ft | 21 kts | 122° |
| 2026-05-04 14:48 | 25.24966 | 55.37375 | 24 ft | 20 kts | 122° |
| 2026-05-04 14:48 | 25.24896 | 55.37499 | 23 ft | 18 kts | 122° |
| 2026-05-04 14:48 | 25.24833 | 55.37611 | 25 ft | 16 kts | 122° |
| 2026-05-04 14:49 | 25.24777 | 55.37712 | 23 ft | 15 kts | 122° |
| 2026-05-04 14:49 | 25.24714 | 55.37824 | 24 ft | 20 kts | 122° |
| 2026-05-04 14:49 | 25.24664 | 55.37936 | 22 ft | 12 kts | 87° |
| 2026-05-04 14:49 | 25.24716 | 55.37990 | 24 ft | 9 kts | 30° |
| 2026-05-04 14:50 | 25.24762 | 55.38021 | 26 ft | 8 kts | 31° |
| 2026-05-04 14:50 | 25.24808 | 55.38019 | 25 ft | 7 kts | 320° |
| 2026-05-04 14:50 | 25.24897 | 55.37860 | 28 ft | 56 kts | 301° |
| 2026-05-04 14:50 | 25.25218 | 55.37285 | 27 ft | 117 kts | 301° |
| 2026-05-04 14:51 | 25.25790 | 55.36253 | 27 ft | 169 kts | 301° |
| 2026-05-04 14:51 | 25.26352 | 55.35223 | 455 ft | 172 kts | 299° |
| 2026-05-04 14:51 | 25.26972 | 55.34097 | 1032 ft | 172 kts | 301° |
| 2026-05-04 14:51 | 25.27601 | 55.32963 | 1567 ft | 176 kts | 301° |
| 2026-05-04 14:52 | 25.28260 | 55.31781 | 1979 ft | 183 kts | 302° |
| 2026-05-04 14:52 | 25.28924 | 55.30578 | 2437 ft | 187 kts | 300° |
| 2026-05-04 14:52 | 25.29242 | 55.29183 | 2870 ft | 192 kts | 269° |
| 2026-05-04 14:52 | 25.28837 | 55.27716 | 3196 ft | 207 kts | 248° |
| 2026-05-04 14:53 | 25.28198 | 55.26255 | 3670 ft | 211 kts | 246° |
| 2026-05-04 14:53 | 25.27718 | 55.24683 | 3905 ft | 227 kts | 265° |
| 2026-05-04 14:53 | 25.27556 | 55.22888 | 4101 ft | 249 kts | 266° |
| 2026-05-04 14:53 | 25.27381 | 55.20900 | 4369 ft | 270 kts | 266° |
| 2026-05-04 14:54 | 25.27192 | 55.18763 | 4912 ft | 279 kts | 267° |
| 2026-05-04 14:54 | 25.27004 | 55.16648 | 5579 ft | 282 kts | 267° |
| 2026-05-04 14:54 | 25.26809 | 55.14480 | 6272 ft | 285 kts | 267° |
| 2026-05-04 14:54 | 25.26611 | 55.12291 | 6939 ft | 287 kts | 267° |
| 2026-05-04 14:55 | 25.26410 | 55.10091 | 7622 ft | 289 kts | 267° |
| 2026-05-04 14:55 | 25.26209 | 55.07879 | 8320 ft | 290 kts | 267° |
| 2026-05-04 14:55 | 25.26008 | 55.05653 | 9032 ft | 292 kts | 267° |
| 2026-05-04 14:55 | 25.25807 | 55.03416 | 9722 ft | 293 kts | 268° |
| 2026-05-04 14:56 | 25.25604 | 55.01157 | 10242 ft | 302 kts | 267° |
| 2026-05-04 14:56 | 25.25391 | 54.98763 | 10358 ft | 324 kts | 267° |
| 2026-05-04 14:56 | 25.25163 | 54.96213 | 10540 ft | 341 kts | 267° |
| 2026-05-04 14:56 | 25.24922 | 54.93576 | 11007 ft | 348 kts | 266° |
| 2026-05-04 14:57 | 25.24675 | 54.90904 | 11560 ft | 351 kts | 266° |
| 2026-05-04 14:57 | 25.24425 | 54.88215 | 12142 ft | 354 kts | 266° |
| 2026-05-04 14:57 | 25.24172 | 54.85496 | 12712 ft | 357 kts | 266° |
| 2026-05-04 14:57 | 25.23916 | 54.82751 | 13291 ft | 360 kts | 266° |
| 2026-05-04 14:58 | 25.23660 | 54.79985 | 13816 ft | 363 kts | 266° |
| 2026-05-04 14:58 | 25.23402 | 54.77199 | 14326 ft | 366 kts | 266° |
| 2026-05-04 14:58 | 25.23143 | 54.74401 | 14861 ft | 368 kts | 266° |
| 2026-05-04 14:58 | 25.22882 | 54.71580 | 15398 ft | 369 kts | 266° |
| 2026-05-04 14:59 | 25.22619 | 54.68757 | 15928 ft | 371 kts | 265° |
| 2026-05-04 14:59 | 25.22356 | 54.65909 | 16456 ft | 373 kts | 265° |
| 2026-05-04 14:59 | 25.21823 | 54.60173 | 17511 ft | 378 kts | 265° |
| 2026-05-04 15:00 | 25.21551 | 54.57279 | 18038 ft | 380 kts | 265° |
| 2026-05-04 15:00 | 25.21339 | 54.54375 | 18503 ft | 381 kts | 271° |
| 2026-05-04 15:00 | 25.21571 | 54.51459 | 18966 ft | 382 kts | 281° |
| 2026-05-04 15:01 | 25.22967 | 54.45762 | 19895 ft | 386 kts | 285° |
| 2026-05-04 15:01 | 25.23694 | 54.42897 | 20361 ft | 388 kts | 285° |
| 2026-05-04 15:01 | 25.24421 | 54.40013 | 20832 ft | 391 kts | 285° |
| 2026-05-04 15:01 | 25.25145 | 54.37124 | 21315 ft | 392 kts | 285° |
| 2026-05-04 15:02 | 25.25873 | 54.34210 | 21786 ft | 394 kts | 285° |
| 2026-05-04 15:02 | 25.26606 | 54.31277 | 22234 ft | 396 kts | 285° |
| 2026-05-04 15:02 | 25.27341 | 54.28334 | 22658 ft | 399 kts | 284° |
| 2026-05-04 15:02 | 25.28078 | 54.25375 | 23084 ft | 401 kts | 284° |
| 2026-05-04 15:03 | 25.28815 | 54.22393 | 23466 ft | 403 kts | 284° |
| 2026-05-04 15:03 | 25.29554 | 54.19394 | 23819 ft | 405 kts | 284° |
| 2026-05-04 15:03 | 25.30293 | 54.16385 | 24174 ft | 406 kts | 284° |
| 2026-05-04 15:03 | 25.31034 | 54.13367 | 24524 ft | 407 kts | 284° |
| 2026-05-04 15:04 | 25.31740 | 54.10338 | 24867 ft | 408 kts | 283° |
| 2026-05-04 15:04 | 25.32401 | 54.07282 | 25207 ft | 409 kts | 282° |
| 2026-05-04 15:04 | 25.33038 | 54.04205 | 25541 ft | 410 kts | 282° |
| 2026-05-04 15:04 | 25.33669 | 54.01126 | 25710 ft | 410 kts | 282° |
| 2026-05-04 15:05 | 25.34289 | 53.98118 | 25752 ft | 402 kts | 282° |
| 2026-05-04 15:05 | 25.34918 | 53.95083 | 25753 ft | 399 kts | 282° |
| 2026-05-04 15:05 | 25.35529 | 53.92142 | 25753 ft | 398 kts | 282° |
| 2026-05-04 15:05 | 25.36150 | 53.89165 | 25760 ft | 397 kts | 282° |
| 2026-05-04 15:06 | 25.36776 | 53.86197 | 25746 ft | 396 kts | 282° |
| 2026-05-04 15:06 | 25.37403 | 53.83232 | 25757 ft | 396 kts | 282° |
| 2026-05-04 15:06 | 25.38031 | 53.80268 | 25757 ft | 396 kts | 282° |
| 2026-05-04 15:07 | 25.39281 | 53.74342 | 25756 ft | 396 kts | 282° |
| 2026-05-04 15:07 | 25.39906 | 53.71377 | 25749 ft | 396 kts | 282° |
| 2026-05-04 15:07 | 25.40527 | 53.68415 | 25747 ft | 396 kts | 282° |
| 2026-05-04 15:07 | 25.41146 | 53.65443 | 25743 ft | 396 kts | 282° |
| 2026-05-04 15:08 | 25.41763 | 53.62476 | 25745 ft | 396 kts | 282° |
| 2026-05-04 15:08 | 25.42382 | 53.59508 | 25747 ft | 396 kts | 282° |
| 2026-05-04 15:08 | 25.43002 | 53.56540 | 25746 ft | 396 kts | 282° |
| 2026-05-04 15:08 | 25.43412 | 53.54575 | 25736 ft | 396 kts | 282° |
| 2026-05-04 15:09 | 25.44038 | 53.51571 | 25744 ft | 396 kts | 282° |
| 2026-05-04 15:09 | 25.44648 | 53.48642 | 25732 ft | 396 kts | 282° |
| 2026-05-04 15:09 | 25.45266 | 53.45675 | 25742 ft | 396 kts | 282° |
| 2026-05-04 15:10 | 25.46502 | 53.39735 | 25742 ft | 396 kts | 282° |
| 2026-05-04 15:10 | 25.47115 | 53.36770 | 25748 ft | 396 kts | 282° |
| 2026-05-04 15:10 | 25.48341 | 53.30837 | 25758 ft | 395 kts | 282° |
| 2026-05-04 15:11 | 25.48953 | 53.27868 | 25747 ft | 395 kts | 282° |
| 2026-05-04 15:11 | 25.49565 | 53.24901 | 25752 ft | 395 kts | 282° |
| 2026-05-04 15:11 | 25.50177 | 53.21934 | 25747 ft | 395 kts | 282° |
| 2026-05-04 15:11 | 25.50782 | 53.18989 | 25744 ft | 395 kts | 282° |
| 2026-05-04 15:12 | 25.51392 | 53.16008 | 25750 ft | 395 kts | 281° |
| 2026-05-04 15:12 | 25.52000 | 53.13030 | 25750 ft | 395 kts | 281° |
| 2026-05-04 15:12 | 25.52605 | 53.10066 | 25752 ft | 395 kts | 281° |
| 2026-05-04 15:12 | 25.53210 | 53.07098 | 25749 ft | 395 kts | 281° |
| 2026-05-04 15:13 | 25.53817 | 53.04126 | 25752 ft | 396 kts | 281° |
| 2026-05-04 15:13 | 25.54423 | 53.01157 | 25744 ft | 396 kts | 281° |
| 2026-05-04 15:13 | 25.55031 | 52.98181 | 25742 ft | 396 kts | 281° |
| 2026-05-04 15:13 | 25.55637 | 52.95206 | 25745 ft | 396 kts | 281° |
| 2026-05-04 15:14 | 25.56265 | 52.92237 | 25752 ft | 396 kts | 285° |
| 2026-05-04 15:14 | 25.57265 | 52.89387 | 25750 ft | 398 kts | 295° |
| 2026-05-04 15:14 | 25.58583 | 52.86687 | 25767 ft | 399 kts | 296° |
| 2026-05-04 15:14 | 25.59910 | 52.83984 | 25759 ft | 398 kts | 296° |
| 2026-05-04 15:15 | 25.61228 | 52.81287 | 25759 ft | 398 kts | 296° |
| 2026-05-04 15:15 | 25.62544 | 52.78586 | 25757 ft | 398 kts | 296° |
| 2026-05-04 15:15 | 25.63854 | 52.75892 | 25759 ft | 398 kts | 296° |
| 2026-05-04 15:16 | 25.66482 | 52.70487 | 25760 ft | 398 kts | 296° |
| 2026-05-04 15:16 | 25.67797 | 52.67787 | 25761 ft | 398 kts | 296° |
| 2026-05-04 15:16 | 25.70430 | 52.62389 | 25762 ft | 398 kts | 296° |
| 2026-05-04 15:17 | 25.71745 | 52.59684 | 25759 ft | 398 kts | 296° |
| 2026-05-04 15:17 | 25.74364 | 52.54272 | 25758 ft | 398 kts | 296° |
| 2026-05-04 15:17 | 25.75672 | 52.51568 | 25756 ft | 398 kts | 296° |
| 2026-05-04 15:18 | 25.76973 | 52.48861 | 25747 ft | 398 kts | 295° |
| 2026-05-04 15:18 | 25.78254 | 52.46138 | 25750 ft | 398 kts | 295° |
| 2026-05-04 15:18 | 25.79520 | 52.43407 | 25752 ft | 398 kts | 295° |
| 2026-05-04 15:19 | 25.82035 | 52.37935 | 25759 ft | 398 kts | 295° |
| 2026-05-04 15:19 | 25.83294 | 52.35203 | 25754 ft | 398 kts | 295° |
| 2026-05-04 15:19 | 25.85809 | 52.29772 | 25671 ft | 395 kts | 295° |
| 2026-05-04 15:20 | 25.87190 | 52.27179 | 25436 ft | 389 kts | 302° |
| 2026-05-04 15:20 | 25.88905 | 52.24860 | 25210 ft | 388 kts | 309° |
| 2026-05-04 15:20 | 25.90734 | 52.22668 | 24980 ft | 387 kts | 309° |
| 2026-05-04 15:20 | 25.92551 | 52.20480 | 24753 ft | 385 kts | 309° |
| 2026-05-04 15:21 | 25.94367 | 52.18285 | 24528 ft | 384 kts | 309° |
| 2026-05-04 15:21 | 25.96174 | 52.16099 | 24306 ft | 384 kts | 309° |
| 2026-05-04 15:21 | 25.99773 | 52.11740 | 23860 ft | 382 kts | 310° |
| 2026-05-04 15:22 | 26.01563 | 52.09570 | 23740 ft | 379 kts | 310° |
| 2026-05-04 15:22 | 26.03347 | 52.07411 | 23758 ft | 378 kts | 310° |
| 2026-05-04 15:22 | 26.06911 | 52.03099 | 23762 ft | 378 kts | 309° |
| 2026-05-04 15:23 | 26.08688 | 52.00945 | 23759 ft | 378 kts | 309° |
| 2026-05-04 15:23 | 26.10459 | 51.98797 | 23723 ft | 379 kts | 309° |
| 2026-05-04 15:23 | 26.12236 | 51.96640 | 23393 ft | 375 kts | 309° |
| 2026-05-04 15:23 | 26.13999 | 51.94502 | 22898 ft | 373 kts | 310° |
| 2026-05-04 15:24 | 26.17483 | 51.90277 | 21951 ft | 368 kts | 310° |
| 2026-05-04 15:24 | 26.20908 | 51.86122 | 21522 ft | 356 kts | 310° |
| 2026-05-04 15:25 | 26.22554 | 51.84122 | 21391 ft | 345 kts | 310° |
| 2026-05-04 15:25 | 26.24141 | 51.82154 | 21117 ft | 337 kts | 306° |
| 2026-05-04 15:25 | 26.25484 | 51.80049 | 20779 ft | 331 kts | 298° |
| 2026-05-04 15:26 | 26.27565 | 51.75533 | 20004 ft | 326 kts | 294° |
| 2026-05-04 15:26 | 26.28572 | 51.73276 | 19632 ft | 324 kts | 294° |
| 2026-05-04 15:26 | 26.30573 | 51.68799 | 18890 ft | 321 kts | 294° |
| 2026-05-04 15:27 | 26.31562 | 51.66581 | 18530 ft | 319 kts | 294° |
| 2026-05-04 15:27 | 26.33532 | 51.62167 | 17795 ft | 316 kts | 294° |
| 2026-05-04 15:28 | 26.35476 | 51.57805 | 17054 ft | 312 kts | 295° |
| 2026-05-04 15:28 | 26.36441 | 51.55641 | 16688 ft | 310 kts | 295° |
| 2026-05-04 15:28 | 26.38217 | 51.51299 | 16023 ft | 305 kts | 288° |
| 2026-05-04 15:29 | 26.38922 | 51.49077 | 15687 ft | 303 kts | 289° |
| 2026-05-04 15:30 | 26.41647 | 51.40544 | 14897 ft | 278 kts | 289° |
| 2026-05-04 15:30 | 26.43567 | 51.34528 | 13538 ft | 267 kts | 290° |
| 2026-05-04 15:31 | 26.44821 | 51.30617 | 12714 ft | 269 kts | 290° |
| 2026-05-04 15:31 | 26.45339 | 51.28617 | 12417 ft | 267 kts | 280° |
| 2026-05-04 15:32 | 26.43899 | 51.22911 | 11555 ft | 271 kts | 234° |
| 2026-05-04 15:32 | 26.41408 | 51.19761 | 10905 ft | 270 kts | 233° |
| 2026-05-04 15:33 | 26.38912 | 51.16684 | 10478 ft | 259 kts | 233° |
| 2026-05-04 15:34 | 26.35393 | 51.12448 | 9803 ft | 245 kts | 233° |
| 2026-05-04 15:34 | 26.34212 | 51.11047 | 9478 ft | 245 kts | 233° |
| 2026-05-04 15:34 | 26.31896 | 51.08307 | 8794 ft | 244 kts | 233° |
| 2026-05-04 15:35 | 26.29570 | 51.05544 | 8121 ft | 244 kts | 233° |
| 2026-05-04 15:35 | 26.28411 | 51.04160 | 7791 ft | 244 kts | 233° |
| 2026-05-04 15:35 | 26.27253 | 51.02773 | 7460 ft | 244 kts | 233° |
| 2026-05-04 15:36 | 26.24714 | 51.00224 | 6807 ft | 248 kts | 223° |
| 2026-05-04 15:36 | 26.23341 | 50.99047 | 6490 ft | 249 kts | 223° |
| 2026-05-04 15:36 | 26.21977 | 50.97882 | 6273 ft | 243 kts | 223° |
| 2026-05-04 15:37 | 26.20648 | 50.96746 | 6053 ft | 239 kts | 223° |
| 2026-05-04 15:37 | 26.19340 | 50.95627 | 5805 ft | 235 kts | 223° |
| 2026-05-04 15:37 | 26.18057 | 50.94527 | 5448 ft | 231 kts | 221° |
| 2026-05-04 15:37 | 26.16746 | 50.93511 | 5088 ft | 229 kts | 218° |
| 2026-05-04 15:38 | 26.15417 | 50.92524 | 4746 ft | 231 kts | 218° |
| 2026-05-04 15:38 | 26.14070 | 50.91520 | 4394 ft | 234 kts | 218° |
| 2026-05-04 15:38 | 26.12715 | 50.90496 | 4040 ft | 236 kts | 220° |
| 2026-05-04 15:38 | 26.11682 | 50.89135 | 3670 ft | 229 kts | 253° |
| 2026-05-04 15:39 | 26.11500 | 50.87457 | 3397 ft | 213 kts | 288° |
| 2026-05-04 15:39 | 26.12165 | 50.86097 | 3286 ft | 197 kts | 317° |
| 2026-05-04 15:39 | 26.14217 | 50.84107 | 3060 ft | 196 kts | 324° |
| 2026-05-04 15:40 | 26.15276 | 50.83155 | 2942 ft | 196 kts | 324° |
| 2026-05-04 15:40 | 26.16217 | 50.82059 | 2823 ft | 197 kts | 310° |
| 2026-05-04 15:40 | 26.16992 | 50.80800 | 2705 ft | 197 kts | 307° |
| 2026-05-04 15:40 | 26.17738 | 50.79521 | 2627 ft | 197 kts | 307° |
| 2026-05-04 15:41 | 26.18465 | 50.78265 | 2525 ft | 186 kts | 307° |
| 2026-05-04 15:41 | 26.19141 | 50.77095 | 2387 ft | 175 kts | 307° |
| 2026-05-04 15:41 | 26.19788 | 50.75979 | 2212 ft | 168 kts | 308° |
| 2026-05-04 15:41 | 26.20414 | 50.74900 | 2016 ft | 164 kts | 308° |
| 2026-05-04 15:42 | 26.21027 | 50.73841 | 1816 ft | 162 kts | 308° |
| 2026-05-04 15:42 | 26.21633 | 50.72795 | 1618 ft | 160 kts | 308° |
| 2026-05-04 15:42 | 26.22233 | 50.71758 | 1408 ft | 159 kts | 307° |
| 2026-05-04 15:42 | 26.22832 | 50.70723 | 1217 ft | 159 kts | 306° |
| 2026-05-04 15:43 | 26.23419 | 50.69707 | 1003 ft | 153 kts | 306° |
| 2026-05-04 15:43 | 26.23987 | 50.68722 | 835 ft | 149 kts | 306° |
| 2026-05-04 15:43 | 26.24549 | 50.67758 | 666 ft | 149 kts | 305° |
| 2026-05-04 15:43 | 26.25113 | 50.66787 | 514 ft | 149 kts | 304° |
| 2026-05-04 15:44 | 26.25660 | 50.65821 | 289 ft | 146 kts | 305° |
| 2026-05-04 15:44 | 26.26215 | 50.64865 | 84 ft | 147 kts | 304° |
| 2026-05-04 15:44 | 26.26737 | 50.63971 | 16 ft | 113 kts | 302° |
| 2026-05-04 15:44 | 26.27005 | 50.63499 | 15 ft | 47 kts | 303° |
| 2026-05-04 15:45 | 26.27170 | 50.63215 | 15 ft | 40 kts | 302° |
| 2026-05-04 15:45 | 26.27251 | 50.62987 | 16 ft | 24 kts | 274° |
| 2026-05-04 15:45 | 26.27255 | 50.62868 | 18 ft | 11 kts | 265° |
| 2026-05-04 15:45 | 26.27211 | 50.62832 | 21 ft | 7 kts | 173° |
| 2026-05-04 15:46 | 26.27182 | 50.62855 | 20 ft | 4 kts | 126° |
| 2026-05-04 15:46 | 26.27153 | 50.62903 | 23 ft | 8 kts | 128° |
| 2026-05-04 15:46 | 26.27119 | 50.62924 | 22 ft | 3 kts | 199° |
| 2026-05-04 15:46 | 26.27108 | 50.62913 | 22 ft | 1 kts | 218° |
| 2026-05-04 15:47 | 26.27106 | 50.62912 | 22 ft | 0 kts | 218° |
| 2026-05-04 15:47 | 26.27095 | 50.62902 | 24 ft | 2 kts | 220° |
| 2026-05-04 15:48 | 26.27093 | 50.62900 | 24 ft | 3 kts | 219° |
| 2026-05-04 15:48 | 26.26993 | 50.62825 | 21 ft | 5 kts | 212° |
| 2026-05-04 15:49 | 26.26979 | 50.62815 | 21 ft | 1 kts | 212° |
| 2026-05-04 15:49 | 26.26977 | 50.62814 | 21 ft | 0 kts | 212° |